Time;durP1;ratioP1;P1;durP2;ratioP2;P2;SDS_P1;SDS_P2;PMS_P1;PMS_P2;Temp;Humidity;BMP_temperature;BMP_pressure;BME280_temperature;BME280_humidity;BME280_pressure;Samples;Min_cycle;Max_cycle;Signal;HPM_P1;HPM_P2
2022/09/07 00:01:44;;;;;;;;;2.00;2.00;;;;;21.42;61.02;100517.38;5036221;28;45459;-74
2022/09/07 00:04:09;;;;;;;;;2.00;2.00;;;;;21.26;61.18;100489.78;5036116;28;45371;-75
2022/09/07 00:06:35;;;;;;;;;1.00;1.00;;;;;21.30;61.66;100507.41;5036498;28;45273;-74
2022/09/07 00:09:02;;;;;;;;;0.75;0.75;;;;;21.24;62.27;100507.81;5036695;28;45487;-76
2022/09/07 00:11:28;;;;;;;;;1.75;1.75;;;;;21.21;62.96;100502.63;5035678;28;46352;-74
2022/09/07 00:13:54;;;;;;;;;1.25;1.25;;;;;21.15;63.10;100503.91;5036178;28;45427;-73
2022/09/07 00:16:23;;;;;;;;;2.75;1.75;;;;;21.17;63.44;100514.56;5036390;28;45455;-73
2022/09/07 00:18:48;;;;;;;;;1.00;1.00;;;;;21.14;63.59;100509.41;5036798;28;45440;-74
2022/09/07 00:21:16;;;;;;;;;1.00;1.00;;;;;21.10;63.79;100512.28;5036330;28;46218;-74
2022/09/07 00:23:41;;;;;;;;;2.25;2.25;;;;;21.08;64.40;100508.81;5036413;28;45470;-74
2022/09/07 00:26:22;;;;;;;;;1.25;1.00;;;;;21.04;64.54;100511.78;5035315;28;45448;-74
2022/09/07 00:28:48;;;;;;;;;1.50;1.50;;;;;21.04;64.12;100515.34;5035799;28;45510;-74
2022/09/07 00:31:20;;;;;;;;;2.25;1.25;;;;;21.00;64.36;100516.53;5035777;28;45494;-76
2022/09/07 00:33:47;;;;;;;;;3.00;3.00;;;;;20.98;64.93;100512.19;5035981;28;45403;-75
2022/09/07 00:36:13;;;;;;;;;4.00;2.25;;;;;20.89;65.19;100502.91;5035967;28;45399;-74
2022/09/07 00:38:39;;;;;;;;;2.00;2.00;;;;;20.93;65.72;100515.19;5036170;28;45425;-74
2022/09/07 00:41:04;;;;;;;;;1.25;1.25;;;;;20.94;65.47;100500.81;5035655;28;46125;-74
2022/09/07 00:43:38;;;;;;;;;1.00;1.00;;;;;20.94;65.39;100500.81;5036264;28;45336;-75
2022/09/07 00:46:06;;;;;;;;;4.50;4.00;;;;;20.94;65.74;100509.72;5036197;28;45345;-73
2022/09/07 00:48:45;;;;;;;;;4.50;2.00;;;;;20.92;65.75;100505.38;5035979;28;45523;-73
2022/09/07 00:51:16;;;;;;;;;2.75;2.25;;;;;20.86;65.55;100495.03;5017447;28;48335;-75
2022/09/07 00:53:45;;;;;;;;;2.25;2.25;;;;;20.85;65.58;100498.72;5035855;28;45403;-74
2022/09/07 00:56:12;;;;;;;;;2.50;1.25;;;;;20.87;65.41;100499.47;5034952;28;45537;-75
2022/09/07 00:58:41;;;;;;;;;1.25;1.25;;;;;20.80;65.92;100508.88;5035236;28;45641;-73
2022/09/07 01:01:07;;;;;;;;;3.50;2.00;;;;;20.76;65.88;100516.25;5038862;28;46234;-73
2022/09/07 01:03:42;;;;;;;;;3.25;3.25;;;;;20.74;66.07;100511.00;5017142;28;45401;-73
2022/09/07 01:06:27;;;;;;;;;2.50;2.50;;;;;20.74;66.07;100516.38;5017207;28;45697;-75
2022/09/07 01:08:55;;;;;;;;;2.00;2.00;;;;;20.74;66.15;100505.63;5035707;28;45531;-74
2022/09/07 01:11:22;;;;;;;;;2.00;2.00;;;;;20.74;66.29;100500.25;5034308;28;46323;-74
2022/09/07 01:13:49;;;;;;;;;2.25;2.25;;;;;20.74;66.12;100499.38;5035210;28;45448;-75
2022/09/07 01:16:33;;;;;;;;;2.50;1.50;;;;;20.74;66.19;100505.63;5035882;28;45761;-74
2022/09/07 01:19:59;;;;;;;;;2.50;2.00;;;;;20.77;65.98;100501.88;5036078;28;45354;-74
2022/09/07 01:22:54;;;;;;;;;3.50;2.00;;;;;20.79;65.84;100515.22;5035303;28;46290;-75
2022/09/07 01:25:39;;;;;;;;;2.25;2.25;;;;;20.74;65.73;100508.31;5034448;28;45510;-74
2022/09/07 01:28:09;;;;;;;;;3.00;2.00;;;;;20.74;65.89;100504.75;5034743;28;45484;-73
2022/09/07 01:30:37;;;;;;;;;1.75;1.75;;;;;20.72;66.16;100507.53;5034778;28;45546;-74
2022/09/07 01:33:21;;;;;;;;;3.50;2.00;;;;;20.71;65.77;100505.81;5035186;28;46278;-72
2022/09/07 01:36:00;;;;;;;;;2.00;1.00;;;;;20.71;65.69;100505.81;5034565;28;45422;-75
2022/09/07 01:38:44;;;;;;;;;2.25;1.00;;;;;20.71;65.57;100497.75;5035327;28;45444;-74
2022/09/07 01:41:20;;;;;;;;;0.25;0.25;;;;;20.63;64.69;100497.34;5034549;28;45423;-73
2022/09/07 01:44:01;;;;;;;;;3.00;1.00;;;;;20.62;64.60;100501.00;5034581;28;46204;-75
2022/09/07 01:46:34;;;;;;;;;1.00;1.00;;;;;20.63;64.60;100497.34;5034759;28;45431;-74
2022/09/07 01:49:09;;;;;;;;;1.00;1.00;;;;;20.63;64.53;100502.72;5035101;28;45343;-74
2022/09/07 01:51:40;;;;;;;;;0.75;0.75;;;;;20.52;63.84;100495.34;5034906;28;45477;-74
2022/09/07 01:54:13;;;;;;;;;1.00;1.00;;;;;20.56;63.67;100498.72;5034248;28;46385;-73
2022/09/07 01:56:43;;;;;;;;;3.00;0.75;;;;;20.53;63.84;100493.53;5033540;28;45632;-74
2022/09/07 01:59:18;;;;;;;;;0.00;0.00;;;;;20.49;63.23;100481.25;5016500;28;45364;-73
2022/09/07 02:01:53;;;;;;;;;0.50;0.50;;;;;20.46;62.93;100484.97;5034433;28;45486;-74
2022/09/07 02:04:24;;;;;;;;;0.00;0.00;;;;;20.45;63.15;100482.41;5034728;28;45446;-73
2022/09/07 02:06:58;;;;;;;;;1.00;1.00;;;;;20.44;63.35;100486.91;5034283;28;45479;-74
2022/09/07 02:09:41;;;;;;;;;1.25;1.00;;;;;20.40;63.33;100490.75;5034869;28;45401;-76
2022/09/07 02:12:17;;;;;;;;;1.00;1.00;;;;;20.38;63.63;100495.34;5033701;28;45425;-75
2022/09/07 02:14:48;;;;;;;;;2.00;0.75;;;;;20.33;63.58;100490.28;5034057;28;46577;-73
2022/09/07 02:17:40;;;;;;;;;0.00;0.00;;;;;20.26;63.66;100472.81;5016364;28;45436;-74
2022/09/07 02:20:16;;;;;;;;;0.50;0.50;;;;;20.25;63.84;100481.81;5033669;28;45531;-75
2022/09/07 02:22:48;;;;;;;;;5.25;1.25;;;;;20.20;64.14;100478.56;5034524;28;45400;-74
2022/09/07 02:25:21;;;;;;;;;1.75;1.75;;;;;20.14;63.60;100473.59;5034179;28;45438;-74
2022/09/07 02:27:52;;;;;;;;;0.75;0.75;;;;;20.15;63.43;100488.72;5029363;28;45952;-73
2022/09/07 02:30:18;;;;;;;;;0.00;0.00;;;;;20.11;63.47;100484.50;5014343;28;45387;-75
2022/09/07 02:32:44;;;;;;;;;0.25;0.25;;;;;20.02;63.20;100470.69;5013946;28;45497;-74
2022/09/07 02:35:09;;;;;;;;;2.00;1.00;;;;;20.02;63.25;100475.19;5014086;28;45963;-73
2022/09/07 02:37:37;;;;;;;;;1.00;1.00;;;;;20.02;63.52;100478.72;5014109;28;45459;-74
2022/09/07 02:40:03;;;;;;;;;1.00;1.00;;;;;20.04;63.35;100481.31;5014457;28;45399;-74
2022/09/07 02:42:32;;;;;;;;;1.75;1.00;;;;;20.03;63.32;100477.78;5013722;28;45424;-74
2022/09/07 02:44:58;;;;;;;;;2.75;1.75;;;;;19.97;63.72;100478.16;5013644;28;45414;-74
2022/09/07 02:47:29;;;;;;;;;0.50;0.25;;;;;19.98;63.17;100479.00;5013927;28;45445;-74
2022/09/07 02:50:30;;;;;;;;;2.75;0.00;;;;;19.98;63.37;100477.22;5012414;28;45536;-74
2022/09/07 02:53:31;;;;;;;;;0.75;0.75;;;;;19.97;63.02;100485.34;5012416;28;45450;-74
2022/09/07 02:56:23;;;;;;;;;0.25;0.25;;;;;19.93;63.17;100484.66;5012795;28;45427;-73
2022/09/07 02:59:16;;;;;;;;;0.50;0.00;;;;;19.86;62.85;100469.91;5014216;28;45373;-74
2022/09/07 03:02:05;;;;;;;;;0.50;0.00;;;;;19.87;63.11;100482.34;5015798;28;45487;-74
2022/09/07 03:04:53;;;;;;;;;2.00;0.25;;;;;19.79;63.64;100480.13;4996430;28;45380;-74
2022/09/07 03:07:24;;;;;;;;;1.25;1.00;;;;;19.78;63.27;100483.75;4994492;28;45491;-73
2022/09/07 03:09:53;;;;;;;;;0.75;0.75;;;;;19.73;63.55;100479.63;4994444;28;45322;-73
2022/09/07 03:12:19;;;;;;;;;1.00;0.00;;;;;19.71;63.80;100480.56;4995971;28;45501;-73
2022/09/07 03:14:45;;;;;;;;;1.25;1.25;;;;;19.67;63.56;100472.78;4997466;28;45553;-74
2022/09/07 03:17:12;;;;;;;;;0.00;0.00;;;;;19.70;63.39;100481.50;4996981;28;45400;-74
2022/09/07 03:19:37;;;;;;;;;2.00;1.00;;;;;19.67;63.26;100484.38;4996000;28;45740;-75
2022/09/07 03:22:04;;;;;;;;;0.00;0.00;;;;;19.65;63.47;100480.06;4996946;28;45369;-74
2022/09/07 03:24:29;;;;;;;;;1.25;1.00;;;;;19.64;63.16;100487.22;4997444;28;45402;-75
2022/09/07 03:26:55;;;;;;;;;0.25;0.25;;;;;19.55;63.31;100477.06;4996693;28;46065;-74
2022/09/07 03:29:20;;;;;;;;;1.00;0.00;;;;;19.59;63.34;100491.16;5032817;28;45471;-75
2022/09/07 03:31:46;;;;;;;;;0.25;0.25;;;;;19.57;63.12;100488.56;5037374;28;45372;-74
2022/09/07 03:34:11;;;;;;;;;3.00;1.25;;;;;19.51;63.61;100489.78;5037473;28;45421;-75
2022/09/07 03:36:37;;;;;;;;;1.00;1.00;;;;;19.49;63.60;100504.22;5037376;28;45975;-75
2022/09/07 03:39:03;;;;;;;;;2.00;1.00;;;;;19.41;63.93;100493.09;5036515;28;45352;-74
2022/09/07 03:41:29;;;;;;;;;1.00;1.00;;;;;19.41;64.21;100496.63;5036473;28;45513;-74
2022/09/07 03:43:55;;;;;;;;;0.00;0.00;;;;;19.41;64.33;100501.13;5036769;28;45585;-73
2022/09/07 03:46:20;;;;;;;;;1.00;1.00;;;;;19.33;64.69;100491.72;5036809;28;46217;-74
2022/09/07 03:48:47;;;;;;;;;2.50;1.00;;;;;19.37;64.55;100505.78;5036684;28;45333;-75
2022/09/07 03:51:14;;;;;;;;;1.00;1.00;;;;;19.32;64.72;100498.03;5036163;28;45405;-73
2022/09/07 03:53:42;;;;;;;;;2.00;0.75;;;;;19.35;64.91;100507.72;5036648;28;45360;-74
2022/09/07 03:56:11;;;;;;;;;1.75;1.75;;;;;19.31;64.88;100504.34;5035627;28;45428;-74
2022/09/07 03:58:37;;;;;;;;;1.00;1.00;;;;;19.25;64.79;100502.03;5018354;28;45957;-75
2022/09/07 04:01:08;;;;;;;;;2.00;0.00;;;;;19.27;64.51;100510.81;5037019;28;45356;-75
2022/09/07 04:03:34;;;;;;;;;0.25;0.25;;;;;19.21;64.69;100507.63;5027856;28;45476;-74
2022/09/07 04:06:01;;;;;;;;;0.00;0.00;;;;;19.20;64.88;100509.44;5016995;28;45569;-74
2022/09/07 04:08:27;;;;;;;;;1.00;1.00;;;;;19.14;65.06;100523.19;5014954;28;45443;-74
2022/09/07 04:10:55;;;;;;;;;1.25;1.25;;;;;19.13;64.96;100530.38;5015130;28;45557;-74
2022/09/07 04:13:21;;;;;;;;;1.00;1.00;;;;;19.13;65.54;100534.84;5016443;28;45497;-74
2022/09/07 04:15:46;;;;;;;;;1.00;1.00;;;;;19.10;65.39;100535.03;5017010;28;45417;-74
2022/09/07 04:18:11;;;;;;;;;2.25;0.50;;;;;19.02;65.02;100531.91;5021411;28;45447;-74
2022/09/07 04:20:37;;;;;;;;;1.00;1.00;;;;;19.02;65.24;100531.91;5036027;28;45436;-74
2022/09/07 04:23:02;;;;;;;;;1.00;1.00;;;;;19.01;65.37;100541.78;5036068;28;45589;-75
2022/09/07 04:25:27;;;;;;;;;0.00;0.00;;;;;19.03;65.47;100547.03;5036113;28;46012;-74
2022/09/07 04:27:54;;;;;;;;;1.25;1.00;;;;;19.03;65.29;100534.50;5036241;28;45278;-75
2022/09/07 04:30:20;;;;;;;;;0.00;0.00;;;;;19.00;65.39;100542.72;5036335;28;45423;-74
2022/09/07 04:32:46;;;;;;;;;1.75;1.00;;;;;18.97;65.40;100535.72;5036182;28;45332;-73
2022/09/07 04:35:11;;;;;;;;;0.50;0.50;;;;;18.95;64.86;100539.44;5035904;28;45462;-74
2022/09/07 04:37:37;;;;;;;;;1.00;1.00;;;;;19.00;64.94;100540.88;5035747;28;45502;-74
2022/09/07 04:40:03;;;;;;;;;2.00;1.00;;;;;19.02;65.26;100531.91;5036129;28;45554;-74
2022/09/07 04:42:29;;;;;;;;;0.75;0.75;;;;;19.01;65.27;100533.75;5035730;28;45535;-74
2022/09/07 04:44:54;;;;;;;;;1.00;1.00;;;;;19.01;65.21;100536.41;5036027;28;45388;-74
2022/09/07 04:47:19;;;;;;;;;1.25;1.00;;;;;19.04;64.73;100533.56;5036070;28;45447;-74
2022/09/07 04:49:48;;;;;;;;;0.00;0.00;;;;;19.04;64.90;100535.38;5036247;28;45458;-74
2022/09/07 04:52:13;;;;;;;;;0.25;0.25;;;;;19.10;65.08;100540.38;5035186;28;45653;-74
2022/09/07 04:54:39;;;;;;;;;2.50;1.00;;;;;19.12;64.79;100539.34;5035677;28;46134;-74
2022/09/07 04:57:04;;;;;;;;;0.25;0.25;;;;;19.11;64.40;100542.13;5035692;28;45444;-73
2022/09/07 04:59:30;;;;;;;;;2.75;1.25;;;;;19.09;64.76;100533.31;5036117;28;45435;-76
2022/09/07 05:01:55;;;;;;;;;2.00;1.00;;;;;19.05;64.79;100537.09;5035822;28;45425;-73
2022/09/07 05:04:20;;;;;;;;;1.00;1.00;;;;;19.07;64.69;100537.88;5017528;28;46698;-74
2022/09/07 05:06:46;;;;;;;;;1.00;1.00;;;;;19.03;64.70;100533.66;5035318;28;45552;-74
2022/09/07 05:09:11;;;;;;;;;1.00;1.00;;;;;19.04;65.10;100536.25;5035503;28;45469;-74
2022/09/07 05:11:36;;;;;;;;;0.50;0.00;;;;;19.07;64.62;100540.56;5017868;28;45451;-74
2022/09/07 05:14:03;;;;;;;;;1.00;1.00;;;;;19.03;64.76;100539.00;5035486;28;46182;-74
2022/09/07 05:16:29;;;;;;;;;1.00;1.00;;;;;19.03;64.94;100533.66;5017513;28;45447;-76
2022/09/07 05:18:57;;;;;;;;;1.00;1.00;;;;;19.05;65.26;100542.47;5036002;28;45463;-74
2022/09/07 05:21:25;;;;;;;;;1.00;1.00;;;;;19.10;64.66;100553.75;5034659;28;45563;-74
2022/09/07 05:23:52;;;;;;;;;1.00;1.00;;;;;19.11;64.60;100552.81;5035577;28;45466;-74
2022/09/07 05:26:20;;;;;;;;;0.75;0.75;;;;;19.18;64.37;100557.75;5035016;28;45431;-74
2022/09/07 05:28:46;;;;;;;;;1.00;1.00;;;;;19.17;64.81;100544.44;5035404;28;45450;-73
2022/09/07 05:31:15;;;;;;;;;1.00;1.00;;;;;19.27;64.41;100553.69;5035550;28;45423;-74
2022/09/07 05:33:44;;;;;;;;;1.00;1.00;;;;;19.31;64.21;100555.25;5034569;28;46186;-75
2022/09/07 05:36:10;;;;;;;;;1.75;1.75;;;;;19.49;64.07;100563.19;5034551;28;45370;-74
2022/09/07 05:38:36;;;;;;;;;0.75;0.75;;;;;19.48;63.67;100565.00;5034999;28;45404;-74
2022/09/07 05:41:12;;;;;;;;;1.75;0.75;;;;;19.47;63.63;100554.38;5017331;28;45541;-75
2022/09/07 05:43:38;;;;;;;;;1.00;1.00;;;;;19.46;63.98;100558.00;5035515;28;45425;-75
2022/09/07 05:46:03;;;;;;;;;3.00;1.00;;;;;19.46;63.89;100547.28;5034789;28;45578;-75
2022/09/07 05:48:28;;;;;;;;;0.00;0.00;;;;;19.48;63.69;100548.03;5034708;28;45669;-76
2022/09/07 05:50:54;;;;;;;;;3.00;1.25;;;;;19.50;63.92;100548.84;5035172;28;45542;-75
2022/09/07 05:53:20;;;;;;;;;0.00;0.00;;;;;19.55;63.55;100546.75;5034593;28;47052;-77
2022/09/07 05:55:46;;;;;;;;;1.00;1.00;;;;;19.58;63.54;100551.06;5034689;28;45457;-76
2022/09/07 05:58:11;;;;;;;;;1.00;1.00;;;;;19.65;63.60;100553.31;5017439;28;45424;-74
2022/09/07 06:00:37;;;;;;;;;3.00;2.00;;;;;19.66;63.33;100549.69;5034707;28;45451;-75
2022/09/07 06:03:02;;;;;;;;;1.00;1.00;;;;;19.74;63.43;100553.72;5029243;28;45529;-77
2022/09/07 06:05:28;;;;;;;;;4.00;1.00;;;;;19.75;63.28;100548.25;5014408;28;45403;-76
2022/09/07 06:07:53;;;;;;;;;1.00;1.00;;;;;19.78;63.37;100557.97;5014895;28;45520;-74
2022/09/07 06:10:18;;;;;;;;;0.50;0.50;;;;;19.78;63.29;100557.97;5014839;28;45368;-74
2022/09/07 06:12:45;;;;;;;;;1.75;1.75;;;;;19.79;63.15;100554.34;5014467;28;45387;-75
2022/09/07 06:15:11;;;;;;;;;1.00;0.75;;;;;19.83;62.74;100555.88;5014947;28;45328;-75
2022/09/07 06:17:36;;;;;;;;;1.00;1.00;;;;;19.87;62.84;100557.44;5013808;28;45347;-75
2022/09/07 06:20:03;;;;;;;;;0.00;0.00;;;;;19.91;62.61;100544.72;5014863;28;45494;-75
2022/09/07 06:22:29;;;;;;;;;1.00;1.00;;;;;19.96;62.47;100548.84;5014246;28;45520;-75
2022/09/07 06:24:54;;;;;;;;;1.00;1.00;;;;;20.03;62.73;100547.53;5015201;28;45463;-74
2022/09/07 06:27:19;;;;;;;;;2.25;1.00;;;;;20.28;61.82;100556.75;5014048;28;45414;-75
2022/09/07 06:29:45;;;;;;;;;1.75;1.50;;;;;20.50;61.11;100563.53;5015296;28;45393;-75
2022/09/07 06:32:10;;;;;;;;;1.50;1.00;;;;;20.58;61.04;100553.16;5029857;28;45557;-75
2022/09/07 06:34:36;;;;;;;;;3.00;3.00;;;;;20.84;60.91;100558.75;5014345;28;45498;-76
2022/09/07 06:37:01;;;;;;;;;1.75;1.25;;;;;21.02;60.14;100560.25;5015259;28;45458;-75
2022/09/07 06:39:27;;;;;;;;;3.50;1.00;;;;;21.60;58.85;100552.91;5014052;28;45612;-74
2022/09/07 06:41:52;;;;;;;;;4.00;1.25;;;;;22.42;56.63;100563.56;5012503;28;47980;-74
2022/09/07 06:44:18;;;;;;;;;1.00;1.00;;;;;22.78;55.07;100561.94;5012184;28;45463;-75
2022/09/07 06:46:43;;;;;;;;;1.50;1.50;;;;;23.02;54.65;100547.66;5020138;28;45738;-77
2022/09/07 06:49:08;;;;;;;;;3.00;2.00;;;;;23.75;52.94;100556.69;5034470;28;45491;-76
2022/09/07 06:51:34;;;;;;;;;1.25;1.25;;;;;24.86;51.10;100558.06;5034111;28;45378;-75
2022/09/07 06:54:00;;;;;;;;;1.00;1.00;;;;;25.77;48.64;100546.06;5034273;28;45499;-76
2022/09/07 06:56:26;;;;;;;;;2.25;1.00;;;;;26.60;46.22;100552.47;5033769;28;45474;-74
2022/09/07 06:58:53;;;;;;;;;2.00;2.00;;;;;26.72;45.17;100539.75;5033759;28;45451;-75
2022/09/07 07:01:19;;;;;;;;;5.25;2.00;;;;;27.26;44.09;100542.19;5033128;28;46223;-75
2022/09/07 07:03:45;;;;;;;;;1.25;1.25;;;;;27.97;43.49;100546.56;5022730;28;45460;-76
2022/09/07 07:06:11;;;;;;;;;1.25;1.00;;;;;27.89;43.01;100549.09;5014129;28;45380;-75
2022/09/07 07:08:38;;;;;;;;;1.25;1.25;;;;;28.06;41.88;100544.81;5013573;28;45587;-75
2022/09/07 07:11:09;;;;;;;;;3.00;1.75;;;;;28.11;41.64;100531.69;5013068;28;45533;-75
2022/09/07 07:13:36;;;;;;;;;4.50;2.50;;;;;27.72;42.24;100537.94;5013386;28;45555;-74
2022/09/07 07:16:10;;;;;;;;;2.00;1.00;;;;;27.58;43.34;100530.25;5013324;28;45374;-77
2022/09/07 07:18:36;;;;;;;;;3.50;1.25;;;;;27.28;43.67;100529.31;5013983;28;45408;-75
2022/09/07 07:21:06;;;;;;;;;1.25;1.25;;;;;26.55;44.17;100518.66;5013915;28;46588;-75
2022/09/07 07:23:35;;;;;;;;;7.00;3.25;;;;;25.99;45.86;100537.00;5013682;28;45403;-76
2022/09/07 07:26:11;;;;;;;;;3.00;2.00;;;;;25.64;46.56;100548.94;5013081;28;45522;-75
2022/09/07 07:28:36;;;;;;;;;2.00;2.00;;;;;25.48;47.58;100543.13;5013390;28;45448;-75
2022/09/07 07:31:04;;;;;;;;;2.00;2.00;;;;;25.40;47.85;100545.59;5013644;28;45395;-76
2022/09/07 07:33:32;;;;;;;;;1.75;1.50;;;;;25.46;47.58;100543.25;5013401;28;45542;-75
2022/09/07 07:36:09;;;;;;;;;0.00;0.00;;;;;25.14;48.20;100545.84;5014128;28;45367;-75
2022/09/07 07:38:35;;;;;;;;;1.00;1.00;;;;;24.84;49.04;100533.88;5033324;28;45544;-76
2022/09/07 07:41:00;;;;;;;;;5.00;3.00;;;;;24.60;49.60;100524.03;5033156;28;46020;-76
2022/09/07 07:43:25;;;;;;;;;5.00;2.00;;;;;24.46;49.53;100529.63;5033494;28;45448;-75
2022/09/07 07:45:51;;;;;;;;;2.50;2.00;;;;;24.30;50.11;100525.44;5033053;28;45551;-74
2022/09/07 07:48:16;;;;;;;;;1.00;1.00;;;;;24.06;50.98;100532.78;5033686;28;45527;-75
2022/09/07 07:50:41;;;;;;;;;3.25;1.75;;;;;23.95;51.62;100537.16;5033624;28;45497;-75
2022/09/07 07:53:07;;;;;;;;;3.00;2.00;;;;;23.87;51.98;100542.28;5033611;28;45466;-75
2022/09/07 07:55:32;;;;;;;;;3.25;2.00;;;;;23.79;52.14;100547.34;5033563;28;45388;-75
2022/09/07 07:57:57;;;;;;;;;1.00;1.00;;;;;23.64;52.23;100524.25;5019146;28;45459;-75
2022/09/07 08:00:23;;;;;;;;;3.50;2.00;;;;;23.37;52.87;100526.22;5036685;28;45440;-75
2022/09/07 08:02:48;;;;;;;;;1.00;1.00;;;;;23.17;53.14;100530.41;5036585;28;45418;-76
2022/09/07 08:05:15;;;;;;;;;2.50;2.50;;;;;23.22;53.89;100539.00;5037049;28;45408;-74
2022/09/07 08:07:41;;;;;;;;;8.50;2.50;;;;;23.20;53.74;100532.88;5036416;28;45324;-75
2022/09/07 08:10:10;;;;;;;;;3.75;3.75;;;;;23.07;53.99;100530.16;5036495;28;45265;-75
2022/09/07 08:12:35;;;;;;;;;1.25;1.25;;;;;23.19;53.93;100527.59;5036239;28;45510;-75
2022/09/07 08:15:00;;;;;;;;;2.75;2.00;;;;;23.39;54.00;100528.81;5036377;28;45504;-75
2022/09/07 08:17:26;;;;;;;;;4.25;2.50;;;;;23.63;53.83;100525.25;5036965;28;45395;-75
2022/09/07 08:19:52;;;;;;;;;2.75;2.00;;;;;23.76;53.07;100520.63;5036229;28;45388;-75
2022/09/07 08:22:17;;;;;;;;;2.50;2.50;;;;;23.69;52.92;100525.63;5036695;28;45565;-75
2022/09/07 08:24:42;;;;;;;;;2.00;2.00;;;;;23.63;53.44;100525.25;5036585;28;45566;-76
2022/09/07 08:27:08;;;;;;;;;3.75;2.25;;;;;23.50;53.64;100525.28;5036080;28;45415;-74
2022/09/07 08:29:33;;;;;;;;;2.00;2.00;;;;;23.63;54.10;100520.69;5018019;28;46010;-76
2022/09/07 08:31:59;;;;;;;;;4.75;2.50;;;;;24.17;52.52;100518.44;5036094;28;45522;-75
2022/09/07 08:34:24;;;;;;;;;2.00;2.00;;;;;24.47;51.44;100525.97;5036536;28;45439;-75
2022/09/07 08:36:49;;;;;;;;;3.50;1.25;;;;;25.13;50.45;100528.78;5036105;28;45377;-76
2022/09/07 08:39:15;;;;;;;;;1.00;1.00;;;;;25.46;48.97;100523.44;5035839;28;48179;-75
2022/09/07 08:42:02;;;;;;;;;2.75;2.75;;;;;25.52;49.19;100518.38;5035678;28;45419;-76
2022/09/07 08:45:01;;;;;;;;;2.00;2.00;;;;;25.74;48.50;100534.66;5036438;28;45406;-75
2022/09/07 08:47:36;;;;;;;;;4.25;2.75;;;;;26.15;48.10;100538.41;5036468;28;45466;-75
2022/09/07 08:50:37;;;;;;;;;1.50;1.00;;;;;26.20;47.20;100522.59;5035623;28;45568;-76
2022/09/07 08:53:02;;;;;;;;;4.00;2.00;;;;;26.17;47.40;100525.56;5035729;28;45322;-75
2022/09/07 08:55:39;;;;;;;;;3.00;2.00;;;;;26.30;47.24;100545.19;5017250;28;45515;-75
2022/09/07 08:58:32;;;;;;;;;2.00;1.25;;;;;26.40;46.89;100534.41;5035400;28;45383;-74
2022/09/07 09:00:58;;;;;;;;;1.00;1.00;;;;;26.62;46.19;100532.50;5035543;28;45622;-76
2022/09/07 09:03:33;;;;;;;;;3.00;2.00;;;;;26.77;47.11;100512.22;5027657;28;45559;-75
2022/09/07 09:06:22;;;;;;;;;2.75;2.00;;;;;27.02;45.84;100518.13;5015942;28;45355;-75
2022/09/07 09:09:29;;;;;;;;;2.25;2.25;;;;;27.28;45.73;100508.50;5014632;28;45481;-75
2022/09/07 09:12:14;;;;;;;;;1.75;1.75;;;;;27.63;45.09;100495.38;4997440;28;46578;-75
2022/09/07 09:14:45;;;;;;;;;4.00;2.25;;;;;27.88;44.29;100499.38;5015219;28;45401;-75
2022/09/07 09:17:31;;;;;;;;;1.00;1.00;;;;;27.77;43.97;100500.41;5033186;28;45317;-75
2022/09/07 09:20:18;;;;;;;;;1.50;1.00;;;;;27.76;43.97;100503.25;5035097;28;45559;-75
2022/09/07 09:22:44;;;;;;;;;4.25;3.00;;;;;27.65;44.43;100504.25;5035589;28;45617;-75
2022/09/07 09:25:23;;;;;;;;;2.50;1.00;;;;;27.61;44.05;100514.53;5035682;28;45502;-75
2022/09/07 09:27:48;;;;;;;;;4.00;2.75;;;;;27.68;44.90;100500.38;5035315;28;45472;-75
2022/09/07 09:30:20;;;;;;;;;3.25;1.75;;;;;27.83;43.78;100505.25;5035187;28;45638;-75
2022/09/07 09:32:49;;;;;;;;;3.00;2.00;;;;;27.91;43.51;100498.25;5035187;28;45376;-75
2022/09/07 09:35:34;;;;;;;;;2.50;2.50;;;;;27.61;44.21;100498.25;5016976;28;45482;-76
2022/09/07 09:38:02;;;;;;;;;3.00;2.00;;;;;27.53;44.23;100505.38;5034931;28;45409;-75
2022/09/07 09:40:35;;;;;;;;;3.00;1.50;;;;;27.80;43.89;100508.25;5034305;28;45479;-74
2022/09/07 09:43:05;;;;;;;;;3.00;3.00;;;;;28.37;43.02;100504.72;5035329;28;45391;-74
2022/09/07 09:45:34;;;;;;;;;3.50;3.00;;;;;28.94;41.69;100490.19;5034876;28;45355;-75
2022/09/07 09:48:07;;;;;;;;;3.50;3.00;;;;;29.58;40.74;100488.34;5034889;28;45449;-75
2022/09/07 09:50:38;;;;;;;;;2.75;2.75;;;;;29.68;39.51;100488.22;5017228;28;45324;-75
2022/09/07 09:53:05;;;;;;;;;1.00;1.00;;;;;29.48;40.30;100487.56;5034735;28;45417;-76
2022/09/07 09:55:34;;;;;;;;;2.00;2.00;;;;;29.26;40.42;100494.28;5034273;28;45435;-75
2022/09/07 09:58:06;;;;;;;;;3.00;3.00;;;;;28.41;41.00;100478.97;5034654;28;45538;-75
2022/09/07 10:00:33;;;;;;;;;2.00;2.00;;;;;28.09;42.26;100480.22;5035020;28;45332;-75
2022/09/07 10:03:14;;;;;;;;;1.25;1.25;;;;;27.78;42.42;100493.94;5030171;28;45489;-75
2022/09/07 10:05:44;;;;;;;;;1.00;1.00;;;;;27.28;43.58;100488.63;5022810;28;45406;-75
2022/09/07 10:08:27;;;;;;;;;6.00;3.00;;;;;26.97;44.77;100494.16;5034840;28;45485;-75
2022/09/07 10:10:57;;;;;;;;;2.50;2.50;;;;;26.64;45.35;100484.47;5034284;28;45356;-76
2022/09/07 10:13:28;;;;;;;;;3.00;2.00;;;;;26.71;45.04;100483.81;5016642;28;47236;-76
2022/09/07 10:15:55;;;;;;;;;4.50;1.75;;;;;26.76;44.87;100483.41;5034656;28;45470;-75
2022/09/07 10:18:34;;;;;;;;;2.75;2.75;;;;;26.72;44.66;100485.53;5034405;28;45590;-77
2022/09/07 10:21:28;;;;;;;;;1.00;1.00;;;;;26.69;44.68;100483.09;5034444;28;45298;-75
2022/09/07 10:23:58;;;;;;;;;2.00;1.00;;;;;26.65;44.46;100473.50;5015847;28;47297;-76
2022/09/07 10:26:27;;;;;;;;;2.00;2.00;;;;;26.53;44.29;100480.84;5015965;28;45466;-75
2022/09/07 10:29:24;;;;;;;;;3.25;3.00;;;;;26.53;45.10;100477.28;5034662;28;45440;-75
2022/09/07 10:32:08;;;;;;;;;1.00;1.00;;;;;26.55;45.71;100478.00;4953219;28;45533;-76
2022/09/07 10:34:51;;;;;;;;;3.50;3.50;;;;;26.57;44.87;100481.44;4953408;28;45477;-77
2022/09/07 10:37:35;;;;;;;;;1.00;1.00;;;;;26.44;45.19;100480.81;4953177;28;45556;-76
2022/09/07 10:40:15;;;;;;;;;5.25;1.00;;;;;26.49;45.22;100476.69;4952869;28;45440;-76
2022/09/07 10:42:50;;;;;;;;;2.75;2.75;;;;;26.50;45.42;100469.44;4952764;28;45482;-76
2022/09/07 10:45:26;;;;;;;;;2.75;2.00;;;;;26.55;45.32;100469.88;4952785;28;45634;-76
2022/09/07 10:48:06;;;;;;;;;1.75;1.00;;;;;26.45;45.39;100472.56;4952971;28;45442;-76
2022/09/07 10:50:44;;;;;;;;;4.00;2.25;;;;;26.37;45.41;100470.53;4952518;28;45547;-76
2022/09/07 10:53:15;;;;;;;;;1.25;1.25;;;;;26.25;45.29;100471.59;4952643;28;45578;-76
2022/09/07 10:56:02;;;;;;;;;0.75;0.75;;;;;26.24;45.63;100467.19;4952181;28;46660;-76
2022/09/07 10:58:45;;;;;;;;;1.00;1.00;;;;;26.30;45.85;100457.66;4952675;28;45529;-74
2022/09/07 11:01:16;;;;;;;;;2.00;2.00;;;;;26.46;45.93;100470.69;4936561;28;45548;-76
2022/09/07 11:04:12;;;;;;;;;3.00;2.00;;;;;26.61;45.28;100466.63;4936566;28;45398;-75
2022/09/07 11:06:47;;;;;;;;;3.00;3.00;;;;;26.76;45.03;100459.84;4965814;28;46201;-75
2022/09/07 11:09:34;;;;;;;;;2.75;2.75;;;;;27.04;44.63;100461.91;5015731;28;45367;-76
2022/09/07 11:12:04;;;;;;;;;1.00;1.00;;;;;27.14;42.89;100451.94;5033651;28;45332;-76
2022/09/07 11:14:36;;;;;;;;;2.00;2.00;;;;;27.04;41.96;100445.63;5033582;28;45388;-75
2022/09/07 11:17:11;;;;;;;;;1.50;1.00;;;;;27.07;41.96;100457.06;5033846;28;46123;-75
2022/09/07 11:19:55;;;;;;;;;0.00;0.00;;;;;27.00;40.69;100457.78;5033637;28;45471;-75
2022/09/07 11:22:26;;;;;;;;;1.75;0.50;;;;;26.92;41.88;100455.75;5033460;28;45415;-76
2022/09/07 11:25:15;;;;;;;;;2.00;2.00;;;;;26.74;41.40;100451.00;5033729;28;45430;-75
2022/09/07 11:27:50;;;;;;;;;3.75;2.50;;;;;26.68;42.37;100457.00;5033292;28;46633;-76
2022/09/07 11:30:25;;;;;;;;;2.50;2.00;;;;;26.50;41.91;100439.66;5033400;28;45399;-76
2022/09/07 11:33:31;;;;;;;;;1.00;1.00;;;;;26.46;42.04;100457.16;5048155;28;45485;-75
2022/09/07 11:36:02;;;;;;;;;2.50;2.25;;;;;26.35;43.32;100456.25;5058059;28;45363;-76
2022/09/07 11:38:40;;;;;;;;;1.00;1.00;;;;;26.23;42.86;100447.34;5057949;28;46356;-76
2022/09/07 11:41:21;;;;;;;;;1.00;1.00;;;;;26.09;42.79;100444.16;5056734;28;45525;-75
2022/09/07 11:43:54;;;;;;;;;1.00;1.00;;;;;25.97;44.13;100441.50;5057026;28;45389;-75